createdAt,value
2017-12-24T00:00:33.692Z,53.35
2017-12-24T00:01:09.158Z,50.88
2017-12-24T00:01:44.062Z,54.42
2017-12-24T00:02:17.575Z,48.80
2017-12-24T00:02:53.468Z,47.13
2017-12-24T00:03:30.048Z,52.33
2017-12-24T00:04:03.380Z,54.90
2017-12-24T00:04:36.421Z,52.78
2017-12-24T00:05:08.949Z,49.97
2017-12-24T00:05:45.732Z,49.75
2017-12-24T00:06:21.962Z,46.63
2017-12-24T00:06:56.682Z,51.08
2017-12-24T00:07:30.336Z,48.50
2017-12-24T00:08:06.132Z,54.15
2017-12-24T00:08:40.347Z,48.50
2017-12-24T00:09:19.689Z,54.47
2017-12-24T00:09:54.451Z,51.58
2017-12-24T00:10:27.792Z,44.35
2017-12-24T00:11:00.393Z,55.38
2017-12-24T00:11:34.240Z,53.92
2017-12-24T00:12:10.148Z,48.63
2017-12-24T00:12:46.065Z,54.75
2017-12-24T00:13:19.187Z,50.15
2017-12-24T00:13:54.367Z,48.87
2017-12-24T00:14:27.910Z,51.30
2017-12-24T00:15:04.906Z,46.88
2017-12-24T00:15:37.492Z,51.97
2017-12-24T00:16:10.533Z,51.00
2017-12-24T00:16:46.613Z,47.72
2017-12-24T00:17:19.155Z,50.90
2017-12-24T00:17:52.654Z,48.42
2017-12-24T00:18:25.994Z,49.28
2017-12-24T00:19:01.115Z,49.55
2017-12-24T00:19:42.584Z,59.30
2017-12-24T00:20:16.240Z,46.50
2017-12-24T00:20:52.762Z,51.97
2017-12-24T00:21:32.264Z,51.08
2017-12-24T00:22:06.463Z,48.72
2017-12-24T00:22:43.118Z,50.78
2017-12-24T00:23:16.851Z,51.42
2017-12-24T00:24:30.554Z,49.25
2017-12-24T00:25:03.957Z,52.83
2017-12-24T00:25:37.977Z,50.40
2017-12-24T00:26:11.617Z,51.83
2017-12-24T00:26:45.506Z,56.47
2017-12-24T00:27:18.485Z,48.15
2017-12-24T00:27:53.422Z,47.72
2017-12-24T00:28:25.939Z,48.08
2017-12-24T00:28:59.319Z,50.28
2017-12-24T00:29:32.843Z,46.55
2017-12-24T00:30:07.543Z,41.67
2017-12-24T00:30:43.246Z,46.67
2017-12-24T00:31:20.694Z,42.97
2017-12-24T00:31:54.202Z,50.92
2017-12-24T00:32:41.441Z,43.25
2017-12-24T00:33:16.837Z,46.20
2017-12-24T00:33:51.923Z,42.83
2017-12-24T00:34:24.647Z,45.67
2017-12-24T00:34:59.086Z,46.05
2017-12-24T00:35:35.853Z,52.45
2017-12-24T00:36:11.021Z,42.70
2017-12-24T00:36:56.800Z,47.15
2017-12-24T00:37:29.393Z,47.33
2017-12-24T00:38:03.929Z,46.60
2017-12-24T00:38:36.470Z,45.47
2017-12-24T00:39:11.505Z,45.53
2017-12-24T00:39:46.748Z,42.97
2017-12-24T00:40:20.919Z,48.63
2017-12-24T00:40:59.367Z,48.10
2017-12-24T00:42:14.708Z,46.67
2017-12-24T00:42:49.967Z,41.25
2017-12-24T00:43:26.315Z,43.70
2017-12-24T00:44:00.578Z,40.00
2017-12-24T00:44:34.252Z,40.15
2017-12-24T00:45:10.379Z,41.80
2017-12-24T00:45:47.819Z,45.35
2017-12-24T00:46:21.167Z,44.42
2017-12-24T00:46:56.829Z,47.45
2017-12-24T00:47:30.964Z,47.15
2017-12-24T00:48:03.810Z,39.03
2017-12-24T00:48:38.685Z,44.55
2017-12-24T00:49:11.328Z,40.83
2017-12-24T00:49:46.035Z,44.58
2017-12-24T00:50:21.836Z,43.63
2017-12-24T00:50:54.408Z,42.08
2017-12-24T00:51:26.940Z,40.70
2017-12-24T00:52:00.396Z,40.83
2017-12-24T00:52:35.105Z,42.03
2017-12-24T00:53:09.918Z,37.65
2017-12-24T00:53:44.589Z,40.47
2017-12-24T00:54:18.486Z,41.25
2017-12-24T00:54:53.089Z,37.83
2017-12-24T00:55:32.965Z,36.85
2017-12-24T00:56:07.650Z,40.40
2017-12-24T00:56:44.921Z,39.60
2017-12-24T00:57:17.474Z,39.85
2017-12-24T00:57:51.827Z,37.70
2017-12-24T00:58:27.033Z,44.78
2017-12-24T00:59:44.697Z,35.13
2017-12-24T01:00:56.922Z,38.70
2017-12-24T01:01:33.741Z,40.42
2017-12-24T01:02:06.241Z,37.85
2017-12-24T01:02:43.515Z,32.42
2017-12-24T01:03:16.755Z,32.45
2017-12-24T01:03:54.781Z,42.70
2017-12-24T01:04:32.984Z,40.70
2017-12-24T01:05:07.839Z,37.05
2017-12-24T01:05:44.666Z,35.60
2017-12-24T01:06:20.796Z,38.10
2017-12-24T01:07:50.328Z,36.20
2017-12-24T01:08:26.250Z,34.33
2017-12-24T01:09:01.516Z,37.35
2017-12-24T01:09:35.033Z,34.53
2017-12-24T01:12:45.446Z,34.65
2017-12-24T01:13:18.192Z,29.73
2017-12-24T01:13:54.363Z,38.13
2017-12-24T01:14:33.692Z,34.60
2017-12-24T01:15:18.142Z,38.60
2017-12-24T01:15:50.923Z,33.88
2017-12-24T01:16:26.720Z,37.30
2017-12-24T01:17:06.524Z,34.72
2017-12-24T01:17:42.303Z,34.45
2017-12-24T01:18:16.789Z,45.70
2017-12-24T01:19:04.533Z,32.35
2017-12-24T01:19:38.072Z,33.65
2017-12-24T01:20:15.466Z,32.15
2017-12-24T01:20:48.920Z,33.60
2017-12-24T01:21:25.030Z,34.63
2017-12-24T01:22:04.754Z,33.28
2017-12-24T01:22:40.247Z,35.83
2017-12-24T01:23:16.242Z,33.17
2017-12-24T01:23:50.016Z,32.75
2017-12-24T01:24:26.912Z,38.20
2017-12-24T01:24:59.757Z,34.72
2017-12-24T01:25:32.316Z,31.10
2017-12-24T01:26:04.821Z,29.70
2017-12-24T01:26:37.350Z,32.95
2017-12-24T01:27:09.863Z,33.83
2017-12-24T01:27:42.721Z,31.62
2017-12-24T01:28:16.956Z,34.00
2017-12-24T01:28:51.936Z,33.45
2017-12-24T01:29:30.306Z,30.98
2017-12-24T01:30:04.872Z,28.87
2017-12-24T01:30:38.283Z,32.42
2017-12-24T01:31:12.308Z,32.67
2017-12-24T01:31:45.081Z,33.33
2017-12-24T01:32:17.781Z,30.65
2017-12-24T01:32:50.518Z,32.03
2017-12-24T01:33:23.801Z,32.05
2017-12-24T01:33:58.991Z,35.70
2017-12-24T01:34:31.721Z,32.63
2017-12-24T01:35:04.514Z,31.00
2017-12-24T01:35:37.403Z,29.77
2017-12-24T01:36:10.176Z,28.98
2017-12-24T01:36:42.788Z,28.30
2017-12-24T01:37:16.078Z,32.33
2017-12-24T01:37:48.580Z,30.52
2017-12-24T01:38:21.139Z,33.50
2017-12-24T01:38:53.922Z,33.25
2017-12-24T01:39:26.586Z,33.05
2017-12-24T01:39:59.287Z,31.98
2017-12-24T01:40:31.797Z,32.67
2017-12-24T01:41:04.307Z,34.35
2017-12-24T01:41:36.841Z,31.20
2017-12-24T01:42:09.406Z,31.80
2017-12-24T01:42:42.387Z,29.10
2017-12-24T01:43:15.060Z,34.38
2017-12-24T01:43:47.694Z,33.95
2017-12-24T01:44:20.321Z,31.40
2017-12-24T01:44:52.823Z,29.05
2017-12-24T01:45:25.329Z,32.33
2017-12-24T01:45:57.958Z,35.67
2017-12-24T01:46:30.919Z,30.77
2017-12-24T01:47:03.717Z,30.42
2017-12-24T01:47:48.032Z,28.58
2017-12-24T01:48:20.563Z,32.15
2017-12-24T01:48:53.102Z,30.88
2017-12-24T01:49:26.374Z,31.83
2017-12-24T01:49:59.663Z,35.50
2017-12-24T01:50:32.933Z,29.30
2017-12-24T01:51:06.202Z,35.25
2017-12-24T01:51:38.747Z,30.37
2017-12-24T01:52:11.275Z,34.15
2017-12-24T01:52:43.864Z,33.22
2017-12-24T01:53:16.368Z,32.17
2017-12-24T01:53:48.886Z,31.45
2017-12-24T01:54:21.400Z,32.20
2017-12-24T01:54:54.690Z,33.85
2017-12-24T01:55:28.108Z,30.55
2017-12-24T01:56:00.646Z,29.90
2017-12-24T01:56:33.163Z,33.38
2017-12-24T01:57:05.685Z,31.65
2017-12-24T01:57:38.236Z,33.80
2017-12-24T01:58:10.765Z,34.78
2017-12-24T01:58:43.271Z,36.25
2017-12-24T01:59:15.784Z,34.13
2017-12-24T01:59:48.299Z,34.50
2017-12-24T02:00:20.822Z,32.88
2017-12-24T02:00:54.115Z,32.28
2017-12-24T02:01:27.389Z,33.95
2017-12-24T02:02:00.720Z,33.05
2017-12-24T02:02:33.229Z,32.97
2017-12-24T02:03:05.758Z,33.95
2017-12-24T02:03:38.281Z,34.28
2017-12-24T02:04:10.805Z,32.47
2017-12-24T02:04:43.321Z,34.60
2017-12-24T02:05:15.855Z,29.08
2017-12-24T02:05:48.463Z,31.10
2017-12-24T02:06:20.979Z,37.22
2017-12-24T02:06:53.497Z,31.92
2017-12-24T02:07:26.039Z,32.58
2017-12-24T02:07:58.581Z,33.50
2017-12-24T02:08:31.865Z,30.75
2017-12-24T02:09:04.397Z,33.00
2017-12-24T02:09:36.917Z,38.47
2017-12-24T02:10:09.422Z,31.08
2017-12-24T02:10:41.953Z,33.17
2017-12-24T02:11:14.474Z,39.03
2017-12-24T02:11:46.990Z,31.90
2017-12-24T02:12:19.499Z,33.58
2017-12-24T02:12:52.020Z,34.58
2017-12-24T02:13:24.693Z,33.75
2017-12-24T02:13:57.232Z,34.78
2017-12-24T02:14:29.747Z,35.25
2017-12-24T02:15:02.268Z,30.77
2017-12-24T02:15:34.774Z,34.30
2017-12-24T02:16:08.117Z,35.17
2017-12-24T02:16:40.645Z,32.35
2017-12-24T02:17:13.170Z,33.03
2017-12-24T02:17:45.699Z,34.47
2017-12-24T02:18:18.205Z,38.33
2017-12-24T02:18:51.505Z,33.45
2017-12-24T02:19:24.030Z,31.50
2017-12-24T02:19:56.538Z,37.97
2017-12-24T02:20:29.824Z,33.45
2017-12-24T02:21:02.366Z,34.67
2017-12-24T02:21:34.882Z,32.05
2017-12-24T02:22:07.380Z,33.67
2017-12-24T02:22:39.884Z,36.40
2017-12-24T02:23:12.401Z,39.85
2017-12-24T02:23:44.908Z,37.15
2017-12-24T02:24:17.415Z,36.17
2017-12-24T02:24:49.957Z,35.13
2017-12-24T02:25:22.459Z,30.92
2017-12-24T02:25:54.971Z,36.22
2017-12-24T02:26:27.526Z,33.58
2017-12-24T02:27:00.039Z,30.30
2017-12-24T02:27:32.578Z,37.85
2017-12-24T02:28:05.091Z,33.90
2017-12-24T02:28:37.601Z,42.58
2017-12-24T02:29:10.116Z,38.70
2017-12-24T02:29:42.622Z,36.92
2017-12-24T02:30:15.155Z,35.60
2017-12-24T02:30:47.669Z,33.95
2017-12-24T02:31:20.985Z,37.17
2017-12-24T02:31:53.482Z,34.10
2017-12-24T02:32:26.003Z,37.95
2017-12-24T02:32:59.282Z,34.55
2017-12-24T02:33:31.844Z,36.17
2017-12-24T02:34:04.361Z,35.75
2017-12-24T02:34:36.871Z,31.60
2017-12-24T02:35:10.133Z,36.47
2017-12-24T02:35:42.690Z,38.72
2017-12-24T02:36:15.204Z,40.70
2017-12-24T02:36:47.722Z,35.90
2017-12-24T02:37:20.238Z,37.20
2017-12-24T02:37:52.765Z,42.42
2017-12-24T02:38:26.047Z,36.50
2017-12-24T02:38:59.372Z,38.15
2017-12-24T02:39:31.895Z,35.00
2017-12-24T02:40:04.449Z,36.47
2017-12-24T02:40:36.963Z,36.97
2017-12-24T02:41:09.509Z,39.13
2017-12-24T02:41:42.033Z,36.45
2017-12-24T02:42:14.525Z,35.20
2017-12-24T02:42:47.415Z,38.55
2017-12-24T02:43:19.918Z,35.55
2017-12-24T02:43:52.430Z,35.25
2017-12-24T02:44:24.948Z,36.83
2017-12-24T02:44:57.609Z,34.45
2017-12-24T02:45:30.942Z,34.05
2017-12-24T02:46:03.538Z,34.97
2017-12-24T02:46:36.071Z,35.33
2017-12-24T02:47:08.597Z,35.00
2017-12-24T02:47:41.166Z,36.25
2017-12-24T02:48:13.697Z,31.60
2017-12-24T02:48:46.270Z,39.72
2017-12-24T02:49:18.790Z,40.15
2017-12-24T02:49:51.400Z,36.95
2017-12-24T02:50:23.918Z,31.87
2017-12-24T02:50:56.451Z,35.70
2017-12-24T02:51:29.737Z,35.25
2017-12-24T02:52:03.036Z,36.72
2017-12-24T02:52:35.569Z,35.17
2017-12-24T02:53:08.088Z,34.97
2017-12-24T02:53:40.602Z,35.92
2017-12-24T02:54:13.113Z,32.42
2017-12-24T02:54:45.617Z,32.42
2017-12-24T02:55:18.123Z,32.88
2017-12-24T02:55:50.630Z,32.55
2017-12-24T02:56:23.135Z,40.38
2017-12-24T02:56:55.638Z,35.28
2017-12-24T02:57:28.163Z,36.15
2017-12-24T02:58:01.024Z,36.45
2017-12-24T02:58:34.298Z,34.70
2017-12-24T02:59:07.586Z,37.08
2017-12-24T02:59:40.102Z,33.92
2017-12-24T03:00:12.616Z,34.42
2017-12-24T03:00:45.155Z,32.83
2017-12-24T03:01:17.681Z,32.65
2017-12-24T03:01:50.210Z,35.45
2017-12-24T03:02:22.737Z,38.83
2017-12-24T03:02:55.265Z,36.08
2017-12-24T03:03:27.785Z,34.60
2017-12-24T03:04:01.068Z,39.42
2017-12-24T03:04:33.568Z,31.95
2017-12-24T03:05:06.091Z,37.35
2017-12-24T03:05:38.601Z,31.40
2017-12-24T03:06:11.115Z,31.00
2017-12-24T03:06:44.397Z,32.50
2017-12-24T03:07:16.906Z,32.55
2017-12-24T03:07:49.425Z,34.78
2017-12-24T03:08:22.702Z,32.95
2017-12-24T03:08:55.977Z,35.53
2017-12-24T03:09:29.266Z,33.90
2017-12-24T03:10:02.543Z,31.87
2017-12-24T03:10:35.051Z,33.05
2017-12-24T03:11:07.562Z,31.50
2017-12-24T03:11:40.849Z,30.67
2017-12-24T03:12:13.352Z,35.05
2017-12-24T03:12:45.864Z,34.83
2017-12-24T03:13:18.373Z,34.50
2017-12-24T03:13:50.920Z,34.35
2017-12-24T03:14:23.451Z,32.33
2017-12-24T03:14:55.959Z,37.92
2017-12-24T03:15:28.465Z,34.00
2017-12-24T03:16:00.973Z,35.97
2017-12-24T03:16:33.478Z,33.85
2017-12-24T03:17:06.007Z,38.42
2017-12-24T03:17:38.519Z,33.95
2017-12-24T03:18:11.142Z,35.58
2017-12-24T03:18:43.663Z,35.25
2017-12-24T03:19:16.170Z,30.55
2017-12-24T03:19:48.680Z,37.15
2017-12-24T03:20:21.191Z,39.90
2017-12-24T03:20:53.710Z,33.88
2017-12-24T03:21:26.243Z,30.60
2017-12-24T03:21:58.762Z,31.52
2017-12-24T03:22:31.275Z,34.28
2017-12-24T03:23:03.796Z,35.97
2017-12-24T03:23:36.310Z,33.13
2017-12-24T03:24:08.831Z,37.78
2017-12-24T03:24:41.353Z,28.60
2017-12-24T03:25:13.854Z,37.10
2017-12-24T03:25:46.365Z,33.42
2017-12-24T03:26:18.914Z,30.42
2017-12-24T03:26:51.436Z,31.48
2017-12-24T03:27:23.960Z,33.08
2017-12-24T03:27:56.469Z,33.65
2017-12-24T03:28:29.143Z,33.75
2017-12-24T03:29:01.672Z,33.33
2017-12-24T03:29:34.218Z,29.60
2017-12-24T03:30:06.774Z,31.95
2017-12-24T03:30:39.290Z,32.53
2017-12-24T03:31:11.830Z,30.70
2017-12-24T03:31:45.109Z,34.15
2017-12-24T03:32:18.388Z,34.50
2017-12-24T03:32:51.684Z,29.48
2017-12-24T03:33:24.205Z,34.95
2017-12-24T03:33:56.745Z,31.30
2017-12-24T03:34:29.256Z,30.67
2017-12-24T03:35:02.548Z,31.62
2017-12-24T03:35:35.867Z,31.42
2017-12-24T03:36:08.394Z,30.25
2017-12-24T03:36:40.907Z,30.40
2017-12-24T03:37:13.430Z,31.58
2017-12-24T03:37:45.937Z,33.70
2017-12-24T03:38:18.477Z,32.95
2017-12-24T03:38:50.990Z,32.50
2017-12-24T03:39:23.798Z,37.83
2017-12-24T03:39:56.322Z,30.80
2017-12-24T03:40:28.836Z,34.15
2017-12-24T03:41:01.381Z,28.95
2017-12-24T03:41:33.923Z,31.87
2017-12-24T03:42:07.339Z,31.67
2017-12-24T03:42:39.850Z,34.10
2017-12-24T03:43:12.367Z,29.45
2017-12-24T03:43:44.893Z,32.92
2017-12-24T03:44:17.601Z,32.53
2017-12-24T03:44:50.103Z,31.27
2017-12-24T03:45:22.715Z,33.60
2017-12-24T03:45:55.248Z,31.45
2017-12-24T03:46:28.553Z,32.60
2017-12-24T03:47:01.850Z,31.48
2017-12-24T03:47:34.445Z,33.33
2017-12-24T03:48:06.961Z,32.40
2017-12-24T03:48:39.472Z,30.25
2017-12-24T03:49:12.019Z,31.87
2017-12-24T03:49:44.565Z,29.33
2017-12-24T03:50:17.108Z,32.38
2017-12-24T03:50:50.426Z,29.75
2017-12-24T03:51:22.972Z,29.58
2017-12-24T03:51:55.502Z,33.03
2017-12-24T03:52:28.022Z,31.77
2017-12-24T03:53:00.526Z,30.80
2017-12-24T03:53:33.062Z,30.58
2017-12-24T03:54:05.610Z,31.12
2017-12-24T03:54:38.362Z,27.62
2017-12-24T03:55:10.911Z,30.92
2017-12-24T03:55:43.566Z,31.00
2017-12-24T03:56:16.842Z,28.20
2017-12-24T03:56:50.127Z,26.02
2017-12-24T03:57:22.668Z,32.28
2017-12-24T03:57:55.215Z,30.85
2017-12-24T03:58:27.718Z,29.92
2017-12-24T03:59:01.009Z,31.62
2017-12-24T03:59:33.532Z,29.08
2017-12-24T04:00:06.083Z,29.40
2017-12-24T04:00:38.591Z,34.15
2017-12-24T04:01:11.883Z,28.83
2017-12-24T04:01:44.401Z,28.05
2017-12-24T04:02:16.916Z,28.30
2017-12-24T04:02:49.433Z,33.53
2017-12-24T04:03:21.975Z,35.30
2017-12-24T04:03:54.484Z,30.73
2017-12-24T04:04:27.767Z,29.83
2017-12-24T04:05:01.070Z,30.45
2017-12-24T04:05:33.574Z,29.73
2017-12-24T04:06:06.086Z,29.83
2017-12-24T04:06:38.602Z,31.17
2017-12-24T04:07:11.115Z,30.55
2017-12-24T04:07:43.658Z,28.27
2017-12-24T04:08:16.962Z,32.63
2017-12-24T04:08:49.501Z,29.25
2017-12-24T04:09:22.010Z,31.20
2017-12-24T04:09:54.521Z,32.05
2017-12-24T04:10:27.806Z,31.40
2017-12-24T04:11:01.123Z,27.85
2017-12-24T04:11:33.635Z,34.28
2017-12-24T04:12:06.144Z,29.85
2017-12-24T04:12:38.645Z,30.83
2017-12-24T04:13:11.153Z,31.35
2017-12-24T04:13:43.688Z,32.75
2017-12-24T04:14:16.201Z,30.27
2017-12-24T04:14:48.716Z,30.27
2017-12-24T04:15:21.253Z,32.47
2017-12-24T04:15:53.767Z,33.50
2017-12-24T04:16:27.051Z,29.05
2017-12-24T04:16:59.561Z,32.35
2017-12-24T04:17:32.067Z,26.62
2017-12-24T04:18:05.381Z,29.60
2017-12-24T04:18:37.907Z,28.10
2017-12-24T04:19:11.200Z,32.05
2017-12-24T04:19:43.707Z,29.80
2017-12-24T04:20:16.211Z,32.33
2017-12-24T04:20:48.728Z,33.05
2017-12-24T04:21:21.256Z,29.05
2017-12-24T04:21:53.788Z,30.92
2017-12-24T04:22:26.301Z,26.73
2017-12-24T04:22:58.810Z,29.25
2017-12-24T04:23:31.349Z,28.87
2017-12-24T04:24:03.925Z,30.10
2017-12-24T04:24:36.424Z,29.30
2017-12-24T04:25:09.697Z,30.27
2017-12-24T04:25:42.981Z,29.40
2017-12-24T04:26:16.266Z,31.05
2017-12-24T04:26:48.771Z,28.65
2017-12-24T04:27:21.296Z,29.48
2017-12-24T04:27:54.565Z,28.40
2017-12-24T04:28:27.070Z,30.10
2017-12-24T04:28:59.578Z,30.40
2017-12-24T04:29:32.090Z,28.70
2017-12-24T04:30:04.620Z,30.27
2017-12-24T04:30:37.151Z,27.90
2017-12-24T04:31:09.692Z,29.63
2017-12-24T04:31:42.202Z,32.20
2017-12-24T04:32:14.710Z,28.45
2017-12-24T04:32:47.260Z,28.98
2017-12-24T04:33:19.816Z,28.87
2017-12-24T04:33:52.327Z,28.12
2017-12-24T04:34:24.840Z,29.05
2017-12-24T04:34:57.351Z,28.00
2017-12-24T04:35:29.877Z,31.95
2017-12-24T04:36:02.378Z,32.47
2017-12-24T04:36:34.891Z,29.63
2017-12-24T04:37:07.401Z,31.27
2017-12-24T04:37:39.914Z,26.55
2017-12-24T04:38:12.439Z,30.42
2017-12-24T04:38:44.968Z,29.95
2017-12-24T04:39:17.503Z,29.00
2017-12-24T04:39:50.808Z,31.65
2017-12-24T04:40:23.345Z,26.58
2017-12-24T04:40:55.915Z,30.70
2017-12-24T04:41:28.422Z,27.75
2017-12-24T04:42:00.957Z,31.55
2017-12-24T04:42:34.286Z,28.27
2017-12-24T04:43:06.866Z,27.48
2017-12-24T04:43:39.389Z,30.55
2017-12-24T04:44:11.906Z,30.10
2017-12-24T04:44:44.476Z,28.65
2017-12-24T04:45:17.016Z,26.87
2017-12-24T04:45:49.526Z,28.10
2017-12-24T04:46:22.058Z,31.10
2017-12-24T04:46:54.596Z,28.83
2017-12-24T04:47:27.101Z,28.75
2017-12-24T04:47:59.649Z,25.92
2017-12-24T04:48:32.920Z,28.92
2017-12-24T04:49:06.273Z,30.33
2017-12-24T04:49:38.792Z,30.30
2017-12-24T04:50:11.305Z,28.35
2017-12-24T04:50:43.812Z,28.85
2017-12-24T04:51:16.360Z,28.65
2017-12-24T04:51:48.885Z,26.80
2017-12-24T04:52:21.392Z,28.70
2017-12-24T04:52:54.706Z,27.87
2017-12-24T04:53:27.245Z,28.92
2017-12-24T04:53:59.760Z,29.55
2017-12-24T04:54:32.259Z,26.95
2017-12-24T04:55:05.544Z,27.05
2017-12-24T04:55:38.820Z,30.95
2017-12-24T04:56:11.336Z,29.80
2017-12-24T04:56:43.842Z,31.23
2017-12-24T04:57:16.363Z,27.92
2017-12-24T04:57:48.900Z,26.52
2017-12-24T04:58:21.419Z,26.05
2017-12-24T04:58:53.925Z,28.70
2017-12-24T04:59:26.454Z,31.08
2017-12-24T04:59:58.979Z,25.40
2017-12-24T05:00:31.516Z,28.42
2017-12-24T05:01:04.027Z,29.98
2017-12-24T05:01:36.549Z,29.85
2017-12-24T05:02:09.054Z,30.40
2017-12-24T05:02:41.587Z,27.40
2017-12-24T05:03:14.093Z,30.10
2017-12-24T05:03:46.622Z,31.33
2017-12-24T05:04:19.137Z,30.83
2017-12-24T05:04:51.646Z,26.52
2017-12-24T05:05:24.174Z,25.50
2017-12-24T05:05:56.743Z,28.85
2017-12-24T05:06:29.250Z,25.50
2017-12-24T05:07:01.749Z,30.00
2017-12-24T05:07:34.263Z,27.02
2017-12-24T05:08:06.782Z,26.12
2017-12-24T05:08:39.305Z,26.67
2017-12-24T05:09:11.830Z,30.60
2017-12-24T05:09:44.336Z,26.02
2017-12-24T05:10:16.854Z,23.95
2017-12-24T05:10:49.368Z,30.75
2017-12-24T05:11:21.893Z,27.45
2017-12-24T05:11:54.421Z,26.02
2017-12-24T05:12:26.954Z,28.45
2017-12-24T05:12:59.510Z,27.80
2017-12-24T05:13:32.037Z,25.17
2017-12-24T05:14:04.556Z,27.17
2017-12-24T05:14:37.829Z,31.02
2017-12-24T05:15:10.350Z,27.58
2017-12-24T05:15:42.877Z,28.70
2017-12-24T05:16:16.202Z,29.83
2017-12-24T05:16:48.742Z,26.50
2017-12-24T05:17:21.251Z,29.40
2017-12-24T05:17:53.784Z,25.60
2017-12-24T05:18:26.297Z,25.65
2017-12-24T05:18:59.612Z,27.00
2017-12-24T05:19:32.126Z,28.02
2017-12-24T05:20:04.650Z,30.48
2017-12-24T05:20:37.164Z,27.70
2017-12-24T05:21:09.695Z,27.55
2017-12-24T05:21:42.200Z,26.58
2017-12-24T05:22:14.764Z,25.27
2017-12-24T05:22:47.325Z,26.90
2017-12-24T05:23:20.604Z,26.87
2017-12-24T05:23:53.941Z,32.65
2017-12-24T05:24:26.478Z,26.30
2017-12-24T05:24:58.985Z,26.30
2017-12-24T05:25:31.498Z,27.55
2017-12-24T05:26:04.020Z,28.25
2017-12-24T05:26:36.558Z,27.45
2017-12-24T05:27:09.064Z,29.05
2017-12-24T05:27:42.330Z,31.15
2017-12-24T05:28:14.833Z,28.65
2017-12-24T05:28:47.328Z,25.90
2017-12-24T05:29:20.616Z,26.52
2017-12-24T05:29:53.138Z,27.60
2017-12-24T05:30:25.642Z,32.28
2017-12-24T05:30:58.157Z,25.60
2017-12-24T05:31:30.668Z,27.23
2017-12-24T05:32:03.205Z,24.92
2017-12-24T05:32:35.711Z,26.37
2017-12-24T05:33:08.225Z,27.05
2017-12-24T05:33:40.736Z,28.00
2017-12-24T05:34:13.366Z,29.17
2017-12-24T05:34:45.894Z,25.35
2017-12-24T05:35:18.441Z,27.33
2017-12-24T05:35:50.970Z,26.70
2017-12-24T05:36:23.527Z,25.83
2017-12-24T05:36:56.054Z,32.00
2017-12-24T05:37:28.585Z,27.37
2017-12-24T05:38:01.105Z,31.92
2017-12-24T05:38:33.635Z,34.70
2017-12-24T05:39:06.915Z,25.85
2017-12-24T05:39:39.456Z,28.08
2017-12-24T05:40:11.984Z,25.33
2017-12-24T05:40:44.525Z,25.23
2017-12-24T05:41:17.046Z,26.60
2017-12-24T05:41:49.604Z,25.40
2017-12-24T05:42:22.119Z,25.30
2017-12-24T05:42:54.634Z,28.85
2017-12-24T05:43:27.151Z,28.60
2017-12-24T05:43:59.674Z,26.25
2017-12-24T05:44:33.077Z,28.25
2017-12-24T05:45:06.452Z,26.95
2017-12-24T05:45:38.966Z,25.85
2017-12-24T05:46:11.501Z,25.88
2017-12-24T05:46:44.018Z,26.25
2017-12-24T05:47:16.546Z,27.45
2017-12-24T05:47:49.061Z,28.58
2017-12-24T05:48:22.370Z,30.60
2017-12-24T05:48:54.877Z,31.37
2017-12-24T05:49:27.406Z,24.10
2017-12-24T05:49:59.918Z,27.05
2017-12-24T05:50:32.445Z,31.58
2017-12-24T05:51:04.962Z,26.08
2017-12-24T05:51:38.500Z,24.95
2017-12-24T05:52:11.001Z,27.98
2017-12-24T05:52:43.504Z,28.60
2017-12-24T05:53:16.045Z,23.87
2017-12-24T05:53:48.554Z,27.00
2017-12-24T05:54:21.106Z,25.88
2017-12-24T05:54:53.658Z,24.98
2017-12-24T05:55:26.172Z,29.52
2017-12-24T05:55:59.481Z,26.70
2017-12-24T05:56:32.014Z,26.12
2017-12-24T05:57:04.545Z,25.40
2017-12-24T05:57:37.072Z,29.95
2017-12-24T05:58:09.638Z,26.52
2017-12-24T05:58:42.141Z,29.63
2017-12-24T05:59:14.657Z,28.85
2017-12-24T05:59:49.321Z,26.50
2017-12-24T06:00:21.857Z,26.10
2017-12-24T06:00:54.488Z,29.12
2017-12-24T06:01:28.707Z,25.40
2017-12-24T06:02:01.254Z,23.65
2017-12-24T06:02:34.549Z,29.73
2017-12-24T06:03:07.062Z,26.85
2017-12-24T06:03:39.574Z,25.85
2017-12-24T06:04:12.851Z,23.52
2017-12-24T06:04:45.386Z,25.20
2017-12-24T06:05:17.895Z,26.52
2017-12-24T06:05:50.407Z,26.52
2017-12-24T06:06:22.930Z,25.08
2017-12-24T06:06:55.453Z,28.77
2017-12-24T06:07:28.744Z,25.25
2017-12-24T06:08:02.062Z,25.25
2017-12-24T06:08:34.570Z,26.90
2017-12-24T06:09:07.085Z,26.95
2017-12-24T06:09:39.597Z,28.67
2017-12-24T06:10:12.106Z,26.17
2017-12-24T06:10:44.611Z,28.38
2017-12-24T06:11:17.140Z,24.63
2017-12-24T06:11:49.661Z,28.42
2017-12-24T06:12:22.179Z,27.10
2017-12-24T06:12:54.698Z,27.48
2017-12-24T06:13:27.999Z,24.52
2017-12-24T06:14:00.515Z,28.77
2017-12-24T06:14:33.026Z,26.70
2017-12-24T06:15:05.557Z,26.08
2017-12-24T06:15:38.834Z,26.02
2017-12-24T06:16:11.349Z,25.00
2017-12-24T06:16:43.878Z,25.15
2017-12-24T06:17:17.152Z,30.83
2017-12-24T06:17:50.457Z,27.87
2017-12-24T06:18:23.011Z,26.27
2017-12-24T06:18:55.543Z,28.85
2017-12-24T06:19:28.834Z,26.27
2017-12-24T06:20:02.124Z,27.20
2017-12-24T06:20:34.630Z,24.10
2017-12-24T06:21:07.137Z,24.85
2017-12-24T06:21:40.429Z,26.58
2017-12-24T06:22:12.941Z,29.80
2017-12-24T06:22:45.465Z,26.02
2017-12-24T06:23:17.981Z,28.92
2017-12-24T06:23:50.490Z,23.35
2017-12-24T06:24:23.040Z,27.98
2017-12-24T06:24:56.334Z,25.50
2017-12-24T06:25:29.619Z,29.23
2017-12-24T06:26:02.154Z,24.20
2017-12-24T06:26:34.673Z,28.12
2017-12-24T06:27:07.186Z,27.75
2017-12-24T06:27:40.466Z,27.98
2017-12-24T06:28:12.975Z,25.85
2017-12-24T06:28:46.162Z,26.83
2017-12-24T06:29:18.709Z,27.35
2017-12-24T06:29:51.253Z,26.70
2017-12-24T06:30:23.778Z,27.13
2017-12-24T06:30:56.288Z,27.60
2017-12-24T06:31:28.819Z,25.37
2017-12-24T06:32:01.398Z,27.55
2017-12-24T06:32:34.683Z,30.65
2017-12-24T06:33:08.038Z,30.60
2017-12-24T06:33:40.562Z,31.58
2017-12-24T06:34:13.079Z,28.60
2017-12-24T06:34:46.354Z,27.67
2017-12-24T06:35:18.902Z,23.65
2017-12-24T06:35:51.589Z,24.90
2017-12-24T06:36:24.063Z,26.45
2017-12-24T06:36:56.588Z,29.02
2017-12-24T06:37:29.114Z,26.92
2017-12-24T06:38:01.624Z,32.58
2017-12-24T06:38:34.159Z,28.55
2017-12-24T06:39:06.790Z,27.00
2017-12-24T06:39:39.380Z,26.10
2017-12-24T06:40:11.900Z,27.75
2017-12-24T06:40:44.425Z,27.30
2017-12-24T06:41:16.955Z,30.60
2017-12-24T06:41:49.466Z,26.05
2017-12-24T06:42:21.979Z,30.02
2017-12-24T06:42:54.486Z,26.75
2017-12-24T06:43:26.999Z,26.62
2017-12-24T06:43:59.501Z,25.60
2017-12-24T06:44:32.012Z,27.52
2017-12-24T06:45:05.289Z,29.12
2017-12-24T06:45:37.811Z,34.75
2017-12-24T06:46:10.330Z,23.52
2017-12-24T06:46:42.847Z,26.73
2017-12-24T06:47:16.008Z,26.42
2017-12-24T06:47:48.515Z,30.00
2017-12-24T06:48:21.839Z,29.87
2017-12-24T06:48:54.361Z,30.37
2017-12-24T06:49:27.661Z,27.35
2017-12-24T06:50:00.202Z,31.02
2017-12-24T06:50:32.717Z,29.63
2017-12-24T06:51:05.273Z,27.33
2017-12-24T06:51:37.834Z,26.17
2017-12-24T06:52:10.333Z,25.80
2017-12-24T06:52:42.915Z,25.83
2017-12-24T06:53:16.197Z,25.65
2017-12-24T06:53:48.765Z,31.00
2017-12-24T06:54:21.246Z,28.77
2017-12-24T06:54:53.765Z,26.85
2017-12-24T06:55:26.261Z,31.17
2017-12-24T06:55:58.758Z,28.40
2017-12-24T06:56:31.287Z,27.87
2017-12-24T06:57:03.817Z,29.65
2017-12-24T06:57:36.325Z,23.65
2017-12-24T06:58:08.826Z,31.12
2017-12-24T06:58:41.365Z,31.73
2017-12-24T06:59:13.887Z,30.10
2017-12-24T06:59:46.410Z,27.62
2017-12-24T07:00:18.927Z,27.98
2017-12-24T07:00:51.467Z,27.10
2017-12-24T07:01:24.000Z,29.08
2017-12-24T07:01:56.533Z,30.50
2017-12-24T07:02:29.060Z,26.90
2017-12-24T07:03:01.573Z,32.13
2017-12-24T07:03:34.099Z,30.95
2017-12-24T07:04:07.398Z,28.10
2017-12-24T07:04:40.683Z,29.33
2017-12-24T07:05:13.205Z,28.02
2017-12-24T07:05:45.763Z,29.92
2017-12-24T07:06:18.303Z,29.05
2017-12-24T07:06:50.822Z,30.02
2017-12-24T07:07:24.093Z,31.12
2017-12-24T07:07:57.276Z,33.95
2017-12-24T07:08:29.789Z,35.38
2017-12-24T07:09:02.303Z,32.28
2017-12-24T07:09:35.586Z,36.42
2017-12-24T07:10:08.099Z,32.25
2017-12-24T07:10:40.614Z,35.20
2017-12-24T07:11:13.147Z,29.33
2017-12-24T07:11:45.702Z,32.50
2017-12-24T07:12:18.209Z,29.70
2017-12-24T07:12:50.709Z,33.83
2017-12-24T07:13:23.245Z,31.17